1. Tydzień z zycia opozycji. Protestujący w bagażniku do Sejmu. Feministka do K. Morawieckiego-będziesz siedział. Nurowska szpilę w lalkę voodoo Piotrowicza. Gersdorf prezesem SN na uchodźstwie. Czy naprawdę nie ma już w Polsce dobrych psychiatrów?

  2. Za tydzień może pojadę na Pradziada do Czech😎☺

  3. Rzuciłem wszystko i przez tydzień w pięknych okolicznościach przyrody obcuję z muzyką, świetnymi ludźmi i wymagającymi instruktorami 😎. Let’s rock! 🎸

  4. dzisiaj 1 tydzien cwiczen jest za mna... stanelam przed lustrem i widze juz pierwsze drobne efekty. jestem taka dumna jejku. walczymy dalej!💕

  5. Rozpoczynający się dziś Ogólnopolski Tydzień św. Krzysztofa obchodzony jest wraz z misyjną Akcją św. Krzysztof – 1 grosz za 1 kilometr szczęśliwej jazdy na środki transportu dla misjonarzy.

  6. Wczoraj przekroczyłam kalorykę, ale w sumie to nie dużo, więc dobrze, bo nie rzuciłam się na słodkie, tylko zjadłam pół pudełka 500 ml lodów 😂, w sobotę za tydzień też zjem coś ponad kalorykę i pewnie będzie to focaccia lub pizza. A do obozu raczej czysta micha.

  7. W odpowiedzi do

    Polecam vinted do sprzedawania ubrań!

  8. Chyba jestem zmuszona przez tydzień łazic bez makijażu

  9. 2018/07/22 06:10 RCNN 220610Z 27008KT 9999 VCTS VCSH FEW012 FEW014CB SCT025 BKN150 32/25 Q1000 NOSIG RMK A2955 TS NE STNRY VCSH NE-E

  10. Jade z siostrą jutro pociągiem do domu Z rodzicami się nie da wytrzymać A miałam jechać do domu dopiero za tydzień